createdAt,value
2018-08-12T00:00:40.046Z,1016.45
2018-08-12T00:01:40.123Z,1016.46
2018-08-12T00:02:40.160Z,1016.46
2018-08-12T00:03:40.140Z,1016.44
2018-08-12T00:04:40.218Z,1016.44
2018-08-12T00:05:40.250Z,1016.44
2018-08-12T00:06:40.532Z,1016.45
2018-08-12T00:07:40.313Z,1016.45
2018-08-12T00:08:40.290Z,1016.47
2018-08-12T00:09:40.367Z,1016.38
2018-08-12T00:10:40.402Z,1016.39
2018-08-12T00:11:40.492Z,1016.36
2018-08-12T00:12:40.411Z,1016.38
2018-08-12T00:14:40.775Z,1016.36
2018-08-12T00:15:40.564Z,1016.38
2018-08-12T00:16:40.540Z,1016.38
2018-08-12T00:17:40.615Z,1016.37
2018-08-12T00:18:40.600Z,1016.34
2018-08-12T00:19:40.628Z,1016.34
2018-08-12T00:20:40.709Z,1016.33
2018-08-12T00:21:40.990Z,1016.33
2018-08-12T00:22:40.722Z,1016.29
2018-08-12T00:23:40.750Z,1016.31
2018-08-12T00:24:40.824Z,1016.30
2018-08-12T00:25:40.862Z,1016.31
2018-08-12T00:26:40.837Z,1016.29
2018-08-12T00:27:40.873Z,1016.30
2018-08-12T00:28:41.199Z,1016.29
2018-08-12T00:29:40.934Z,1016.23
2018-08-12T00:30:41.018Z,1016.24
2018-08-12T00:31:40.999Z,1016.26
2018-08-12T00:32:41.024Z,1016.22
2018-08-12T00:33:41.107Z,1016.21
2018-08-12T00:34:41.089Z,1016.22
2018-08-12T00:35:41.410Z,1016.22
2018-08-12T00:36:41.151Z,1016.20
2018-08-12T00:37:41.221Z,1016.21
2018-08-12T00:38:41.208Z,1016.17
2018-08-12T00:39:41.239Z,1016.18
2018-08-12T00:40:41.314Z,1016.20
2018-08-12T00:41:41.345Z,1016.16
2018-08-12T00:42:41.630Z,1016.17
2018-08-12T00:43:41.361Z,1016.14
2018-08-12T00:44:41.389Z,1016.14
2018-08-12T00:45:41.418Z,1016.14
2018-08-12T00:46:41.500Z,1016.12
2018-08-12T00:47:41.531Z,1016.11
2018-08-12T00:48:41.562Z,1016.15
2018-08-12T00:49:41.862Z,1016.15
2018-08-12T00:50:41.576Z,1016.12
2018-08-12T00:51:41.608Z,1016.09
2018-08-12T00:52:41.630Z,1016.11
2018-08-12T00:53:41.709Z,1016.04
2018-08-12T00:54:41.738Z,1016.03
2018-08-12T00:55:42.036Z,1016.03
2018-08-12T00:56:41.754Z,1016.01
2018-08-12T00:57:41.839Z,1016.02
2018-08-12T00:58:41.812Z,1016.02
2018-08-12T00:59:41.913Z,1016.04
2018-08-12T01:00:41.880Z,1015.99
2018-08-12T01:01:42.202Z,1016.03
2018-08-12T01:02:41.985Z,1015.99
2018-08-12T01:03:42.018Z,1016.02
2018-08-12T01:04:41.999Z,1015.99
2018-08-12T01:05:42.084Z,1016.03
2018-08-12T01:06:42.059Z,1016.02
2018-08-12T01:07:42.150Z,1015.99
2018-08-12T01:08:42.122Z,1015.98
2018-08-12T01:09:42.162Z,1016.01
2018-08-12T01:10:42.175Z,1015.99
2018-08-12T01:11:42.210Z,1015.97
2018-08-12T01:12:42.286Z,1016.00
2018-08-12T01:13:42.577Z,1015.96
2018-08-12T01:14:42.310Z,1015.97
2018-08-12T01:15:42.429Z,1015.94
2018-08-12T01:16:42.418Z,1015.94
2018-08-12T01:17:42.441Z,1015.93
2018-08-12T01:18:42.476Z,1015.95
2018-08-12T01:19:42.454Z,1015.95
2018-08-12T01:20:42.532Z,1015.95
2018-08-12T01:21:42.514Z,1015.97
2018-08-12T01:22:42.546Z,1015.94
2018-08-12T01:23:42.568Z,1015.90
2018-08-12T01:24:42.600Z,1015.88
2018-08-12T01:25:42.683Z,1015.86
2018-08-12T01:26:42.964Z,1015.86
2018-08-12T01:27:42.697Z,1015.84
2018-08-12T01:28:42.719Z,1015.84
2018-08-12T01:29:42.806Z,1015.83
2018-08-12T01:30:42.834Z,1015.81
2018-08-12T01:31:42.810Z,1015.82
2018-08-12T01:32:42.849Z,1015.83
2018-08-12T01:33:43.229Z,1015.80
2018-08-12T01:34:42.958Z,1015.81
2018-08-12T01:35:42.935Z,1015.77
2018-08-12T01:37:43.057Z,1015.73
2018-08-12T01:38:43.025Z,1015.72
2018-08-12T01:39:43.115Z,1015.71
2018-08-12T01:40:43.389Z,1015.74
2018-08-12T01:41:43.166Z,1015.75
2018-08-12T01:42:43.153Z,1015.67
2018-08-12T01:43:43.175Z,1015.72
2018-08-12T01:44:43.251Z,1015.73
2018-08-12T01:45:43.281Z,1015.70
2018-08-12T01:47:43.350Z,1015.68
2018-08-12T01:49:43.656Z,1015.67
2018-08-12T01:50:43.460Z,1015.64
2018-08-12T01:52:43.502Z,1015.61
2018-08-12T01:53:43.536Z,1015.63
2018-08-12T01:54:43.509Z,1015.62
2018-08-12T01:55:43.538Z,1015.63
2018-08-12T01:56:43.874Z,1015.64
2018-08-12T01:57:43.651Z,1015.63
2018-08-12T01:58:43.686Z,1015.63
2018-08-12T01:59:43.669Z,1015.61
2018-08-12T02:00:43.690Z,1015.57
2018-08-12T02:01:43.765Z,1015.55
2018-08-12T02:02:43.803Z,1015.57
2018-08-12T02:03:44.076Z,1015.59
2018-08-12T02:04:43.855Z,1015.60
2018-08-12T02:05:43.840Z,1015.61
2018-08-12T02:06:43.868Z,1015.61
2018-08-12T02:07:43.915Z,1015.60
2018-08-12T02:08:43.928Z,1015.64
2018-08-12T02:09:44.016Z,1015.57
2018-08-12T02:10:44.339Z,1015.59
2018-08-12T02:11:44.016Z,1015.54
2018-08-12T02:12:44.047Z,1015.50
2018-08-12T02:13:44.140Z,1015.50
2018-08-12T02:14:44.112Z,1015.48
2018-08-12T02:15:44.195Z,1015.50
2018-08-12T02:16:44.172Z,1015.49
2018-08-12T02:17:44.502Z,1015.46
2018-08-12T02:18:44.286Z,1015.52
2018-08-12T02:19:44.285Z,1015.51
2018-08-12T02:20:44.344Z,1015.46
2018-08-12T02:21:44.316Z,1015.46
2018-08-12T02:22:44.404Z,1015.47
2018-08-12T02:23:44.382Z,1015.49
2018-08-12T02:24:44.412Z,1015.44
2018-08-12T02:25:44.488Z,1015.43
2018-08-12T02:26:44.469Z,1015.40
2018-08-12T02:27:45.019Z,1015.41
2018-08-12T02:28:44.530Z,1015.43
2018-08-12T02:29:44.615Z,1015.40
2018-08-12T02:30:44.887Z,1015.35
2018-08-12T02:31:44.618Z,1015.36
2018-08-12T02:32:44.726Z,1015.31
2018-08-12T02:33:44.728Z,1015.35
2018-08-12T02:34:44.754Z,1015.31
2018-08-12T02:35:44.743Z,1015.35
2018-08-12T02:36:44.772Z,1015.27
2018-08-12T02:37:44.804Z,1015.24
2018-08-12T02:38:44.882Z,1015.21
2018-08-12T02:39:44.854Z,1015.23
2018-08-12T02:40:44.888Z,1015.21
2018-08-12T02:41:44.973Z,1015.24
2018-08-12T02:42:45.303Z,1015.22
2018-08-12T02:43:45.028Z,1015.19
2018-08-12T02:44:45.007Z,1015.18
2018-08-12T02:45:45.089Z,1015.21
2018-08-12T02:46:45.132Z,1015.20
2018-08-12T02:47:45.095Z,1015.18
2018-08-12T02:48:45.428Z,1015.18
2018-08-12T02:49:45.206Z,1015.14
2018-08-12T02:50:45.235Z,1015.05
2018-08-12T02:51:45.213Z,1015.07
2018-08-12T02:52:45.250Z,1015.07
2018-08-12T02:53:45.331Z,1015.01
2018-08-12T02:54:45.361Z,1015.01
2018-08-12T02:55:45.640Z,1014.99
2018-08-12T02:56:45.413Z,1014.93
2018-08-12T02:57:45.443Z,1014.90
2018-08-12T02:58:45.430Z,1014.89
2018-08-12T02:59:45.513Z,1014.88
2018-08-12T03:00:45.490Z,1014.85
2018-08-12T03:01:45.573Z,1014.87
2018-08-12T03:02:45.857Z,1014.83
2018-08-12T03:03:45.584Z,1014.84
2018-08-12T03:05:45.685Z,1014.84
2018-08-12T03:06:45.715Z,1014.82
2018-08-12T03:07:45.696Z,1014.86
2018-08-12T03:08:45.726Z,1014.80
2018-08-12T03:09:46.107Z,1014.81
2018-08-12T03:10:45.842Z,1014.77
2018-08-12T03:11:45.808Z,1014.77
2018-08-12T03:12:45.840Z,1014.77
2018-08-12T03:13:45.869Z,1014.76
2018-08-12T03:14:45.906Z,1014.75
2018-08-12T03:15:45.980Z,1014.75
2018-08-12T03:16:46.263Z,1014.73
2018-08-12T03:17:46.039Z,1014.73
2018-08-12T03:18:46.017Z,1014.77
2018-08-12T03:19:46.060Z,1014.76
2018-08-12T03:20:46.128Z,1014.80
2018-08-12T03:21:46.160Z,1014.80
2018-08-12T03:22:46.136Z,1014.79
2018-08-12T03:23:46.468Z,1014.81
2018-08-12T03:24:46.209Z,1014.84
2018-08-12T03:25:46.294Z,1014.80
2018-08-12T03:26:46.318Z,1014.82
2018-08-12T03:27:46.290Z,1014.80
2018-08-12T03:28:46.327Z,1014.78
2018-08-12T03:29:46.404Z,1014.74
2018-08-12T03:30:46.678Z,1014.72
2018-08-12T03:31:46.461Z,1014.69
2018-08-12T03:32:46.443Z,1014.69
2018-08-12T03:33:46.516Z,1014.70
2018-08-12T03:34:46.502Z,1014.69
2018-08-12T03:35:46.535Z,1014.64
2018-08-12T03:36:46.612Z,1014.63
2018-08-12T03:37:46.913Z,1014.68
2018-08-12T03:38:46.672Z,1014.68
2018-08-12T03:39:46.646Z,1014.66
2018-08-12T03:40:46.733Z,1014.66
2018-08-12T03:42:46.745Z,1014.66
2018-08-12T03:43:46.768Z,1014.58
2018-08-12T03:44:47.105Z,1014.60
2018-08-12T03:45:46.884Z,1014.54
2018-08-12T03:46:46.863Z,1014.48
2018-08-12T03:47:46.942Z,1014.49
2018-08-12T03:48:47.002Z,1014.46
2018-08-12T03:49:47.023Z,1014.46
2018-08-12T03:50:46.985Z,1014.49
2018-08-12T03:51:47.313Z,1014.46
2018-08-12T03:52:47.048Z,1014.45
2018-08-12T03:53:47.129Z,1014.45
2018-08-12T03:54:47.152Z,1014.44
2018-08-12T03:55:47.135Z,1014.44
2018-08-12T03:56:47.222Z,1014.41
2018-08-12T03:57:47.243Z,1014.46
2018-08-12T03:58:47.529Z,1014.47
2018-08-12T03:59:47.310Z,1014.46
2018-08-12T04:01:47.372Z,1014.43
2018-08-12T04:02:47.351Z,1014.42
2018-08-12T04:03:47.378Z,1014.40
2018-08-12T04:04:47.461Z,1014.42
2018-08-12T04:05:47.453Z,1014.41
2018-08-12T04:06:47.473Z,1014.43
2018-08-12T04:07:47.592Z,1014.42
2018-08-12T04:08:47.540Z,1014.40
2018-08-12T04:09:47.613Z,1014.45
2018-08-12T04:10:47.684Z,1014.41
2018-08-12T04:12:47.652Z,1014.42
2018-08-12T04:13:47.736Z,1014.42
2018-08-12T04:14:47.768Z,1014.41
2018-08-12T04:15:47.753Z,1014.40
2018-08-12T04:16:47.781Z,1014.39
2018-08-12T04:17:48.111Z,1014.37
2018-08-12T04:18:47.889Z,1014.39
2018-08-12T04:19:47.925Z,1014.36
2018-08-12T04:20:47.906Z,1014.38
2018-08-12T04:22:48.022Z,1014.37
2018-08-12T04:23:48.289Z,1014.36
2018-08-12T04:24:48.075Z,1014.36
2018-08-12T04:25:48.122Z,1014.40
2018-08-12T04:26:48.081Z,1014.40
2018-08-12T04:27:48.114Z,1014.38
2018-08-12T04:28:48.149Z,1014.33
2018-08-12T04:29:48.175Z,1014.34
2018-08-12T04:31:48.543Z,1014.36
2018-08-12T04:32:48.275Z,1014.34
2018-08-12T04:33:48.348Z,1014.29
2018-08-12T04:34:48.343Z,1014.29
2018-08-12T04:35:48.413Z,1014.33
2018-08-12T04:36:48.403Z,1014.31
2018-08-12T04:37:48.729Z,1014.28
2018-08-12T04:38:48.458Z,1014.26
2018-08-12T04:39:48.486Z,1014.30
2018-08-12T04:40:48.565Z,1014.29
2018-08-12T04:42:48.585Z,1014.30
2018-08-12T04:43:48.614Z,1014.31
2018-08-12T04:44:48.947Z,1014.34
2018-08-12T04:45:48.724Z,1014.29
2018-08-12T04:46:48.750Z,1014.36
2018-08-12T04:47:48.787Z,1014.33
2018-08-12T04:48:48.821Z,1014.34
2018-08-12T04:49:48.859Z,1014.37
2018-08-12T04:50:48.830Z,1014.34
2018-08-12T04:51:49.159Z,1014.32
2018-08-12T04:52:49.191Z,1014.30
2018-08-12T04:53:48.924Z,1014.31
2018-08-12T04:54:49.005Z,1014.33
2018-08-12T04:55:48.984Z,1014.30
2018-08-12T04:56:49.008Z,1014.31
2018-08-12T04:57:49.090Z,1014.31
2018-08-12T04:58:49.374Z,1014.35
2018-08-12T04:59:49.156Z,1014.34
2018-08-12T05:00:49.137Z,1014.34
2018-08-12T05:01:49.171Z,1014.32
2018-08-12T05:03:49.235Z,1014.31
2018-08-12T05:04:49.309Z,1014.27
2018-08-12T05:05:49.592Z,1014.30
2018-08-12T05:07:49.406Z,1014.30
2018-08-12T05:08:49.386Z,1014.28
2018-08-12T05:09:49.465Z,1014.30
2018-08-12T05:10:49.498Z,1014.26
2018-08-12T05:11:49.483Z,1014.27
2018-08-12T05:12:49.808Z,1014.27
2018-08-12T05:13:49.597Z,1014.28
2018-08-12T05:14:49.580Z,1014.26
2018-08-12T05:15:49.654Z,1014.26
2018-08-12T05:16:49.640Z,1014.27
2018-08-12T05:18:49.751Z,1014.25
2018-08-12T05:19:50.030Z,1014.22
2018-08-12T05:20:49.764Z,1014.23
2018-08-12T05:21:49.844Z,1014.20
2018-08-12T05:22:49.905Z,1014.19
2018-08-12T05:23:49.861Z,1014.15
2018-08-12T05:24:49.887Z,1014.11
2018-08-12T05:25:49.911Z,1014.15
2018-08-12T05:26:50.247Z,1014.16
2018-08-12T05:27:49.984Z,1014.14
2018-08-12T05:28:50.012Z,1014.14
2018-08-12T05:29:50.090Z,1014.14
2018-08-12T05:30:50.069Z,1014.16
2018-08-12T05:31:50.155Z,1014.13
2018-08-12T05:32:50.130Z,1014.13
2018-08-12T05:33:50.513Z,1014.15
2018-08-12T05:34:50.197Z,1014.12
2018-08-12T05:35:50.226Z,1014.12
2018-08-12T05:36:50.309Z,1014.11
2018-08-12T05:37:50.284Z,1014.11
2018-08-12T05:38:50.321Z,1014.09
2018-08-12T05:39:50.355Z,1014.13
2018-08-12T05:40:50.696Z,1014.09
2018-08-12T05:41:50.470Z,1014.09
2018-08-12T05:42:50.498Z,1014.10
2018-08-12T05:44:50.509Z,1014.11
2018-08-12T05:46:50.614Z,1014.15
2018-08-12T05:47:50.901Z,1014.15
2018-08-12T05:48:50.631Z,1014.14
2018-08-12T05:49:50.714Z,1014.14
2018-08-12T05:50:50.697Z,1014.11
2018-08-12T05:51:50.775Z,1014.07
2018-08-12T05:52:50.762Z,1014.07
2018-08-12T05:53:50.842Z,1014.04
2018-08-12T05:54:51.120Z,1014.04
2018-08-12T05:55:50.907Z,1014.03
2018-08-12T05:56:50.884Z,1014.00
2018-08-12T05:57:50.960Z,1013.99
2018-08-12T05:58:50.940Z,1014.00
2018-08-12T05:59:50.981Z,1014.00
2018-08-12T06:00:51.311Z,1013.97
2018-08-12T06:01:51.043Z,1013.96
2018-08-12T06:02:51.160Z,1013.97
2018-08-12T06:03:51.097Z,1013.95
2018-08-12T06:04:51.233Z,1013.94
2018-08-12T06:06:51.251Z,1013.93
2018-08-12T06:07:51.580Z,1013.93
2018-08-12T06:08:51.263Z,1013.95
2018-08-12T06:09:51.298Z,1013.92
2018-08-12T06:10:51.318Z,1013.92
2018-08-12T06:11:51.400Z,1013.88
2018-08-12T06:12:51.385Z,1013.96
2018-08-12T06:13:51.720Z,1013.92
2018-08-12T06:14:51.443Z,1013.89
2018-08-12T06:15:51.481Z,1013.89
2018-08-12T06:16:51.560Z,1013.86
2018-08-12T06:17:51.550Z,1013.89
2018-08-12T06:18:51.573Z,1013.89
2018-08-12T06:19:51.906Z,1013.89
2018-08-12T06:20:51.639Z,1013.87
2018-08-12T06:21:51.721Z,1013.87
2018-08-12T06:23:51.782Z,1013.86
2018-08-12T06:24:51.761Z,1013.92
2018-08-12T06:25:51.851Z,1013.88
2018-08-12T06:26:52.126Z,1013.90
2018-08-12T06:27:51.858Z,1013.92
2018-08-12T06:28:51.939Z,1013.91
2018-08-12T06:29:51.974Z,1013.87
2018-08-12T06:30:51.948Z,1013.85
2018-08-12T06:31:52.030Z,1013.81
2018-08-12T06:33:52.100Z,1013.84
2018-08-12T06:34:52.375Z,1013.85
2018-08-12T06:35:52.133Z,1013.84
2018-08-12T06:36:52.187Z,1013.81
2018-08-12T06:37:52.244Z,1013.80
2018-08-12T06:38:52.209Z,1013.73
2018-08-12T06:39:52.343Z,1013.77
2018-08-12T06:40:52.322Z,1013.74
2018-08-12T06:41:52.647Z,1013.72
2018-08-12T06:42:52.331Z,1013.71
2018-08-12T06:43:52.359Z,1013.74
2018-08-12T06:44:52.445Z,1013.76
2018-08-12T06:45:52.424Z,1013.70
2018-08-12T06:46:52.511Z,1013.73
2018-08-12T06:47:52.498Z,1013.67
2018-08-12T06:48:52.825Z,1013.62
2018-08-12T06:49:52.600Z,1013.63
2018-08-12T06:50:52.636Z,1013.64
2018-08-12T06:51:52.635Z,1013.62
2018-08-12T06:52:52.697Z,1013.63
2018-08-12T06:53:52.735Z,1013.65
2018-08-12T06:54:52.760Z,1013.67
2018-08-12T06:55:53.045Z,1013.66
2018-08-12T06:56:52.828Z,1013.65
2018-08-12T06:57:52.859Z,1013.67
2018-08-12T06:58:52.834Z,1013.63
2018-08-12T06:59:52.868Z,1013.63
2018-08-12T07:00:52.909Z,1013.61
2018-08-12T07:01:52.984Z,1013.61
2018-08-12T07:02:53.332Z,1013.58
2018-08-12T07:03:52.997Z,1013.57
2018-08-12T07:04:53.679Z,1013.55
2018-08-12T07:05:53.114Z,1013.55
2018-08-12T07:07:53.175Z,1013.56
2018-08-12T07:08:53.211Z,1013.54
2018-08-12T07:09:53.488Z,1013.58
2018-08-12T07:10:53.223Z,1013.56
2018-08-12T07:12:53.345Z,1013.55
2018-08-12T07:13:53.367Z,1013.58
2018-08-12T07:14:53.355Z,1013.54
2018-08-12T07:15:53.401Z,1013.53
2018-08-12T07:16:53.435Z,1013.59
2018-08-12T07:18:53.526Z,1013.56
2018-08-12T07:19:53.511Z,1013.57
2018-08-12T07:20:53.541Z,1013.57
2018-08-12T07:21:53.627Z,1013.61
2018-08-12T07:22:53.909Z,1013.55
2018-08-12T07:23:53.687Z,1013.56
2018-08-12T07:24:53.734Z,1013.57
2018-08-12T07:26:53.749Z,1013.54
2018-08-12T07:27:53.819Z,1013.59
2018-08-12T07:28:53.795Z,1013.56
2018-08-12T07:29:54.139Z,1013.53
2018-08-12T07:30:53.869Z,1013.55
2018-08-12T07:31:53.893Z,1013.48
2018-08-12T07:32:54.039Z,1013.48
2018-08-12T07:33:54.011Z,1013.45
2018-08-12T07:34:53.995Z,1013.47
2018-08-12T07:35:54.025Z,1013.46
2018-08-12T07:36:54.355Z,1013.45
2018-08-12T07:37:54.138Z,1013.40
2018-08-12T07:38:54.184Z,1013.40
2018-08-12T07:39:54.150Z,1013.43
2018-08-12T07:40:54.187Z,1013.39
2018-08-12T07:41:54.274Z,1013.41
2018-08-12T07:42:54.248Z,1013.39
2018-08-12T07:43:54.582Z,1013.37
2018-08-12T07:44:54.367Z,1013.37
2018-08-12T07:45:54.395Z,1013.34
2018-08-12T07:46:54.379Z,1013.32
2018-08-12T07:47:54.465Z,1013.31
2018-08-12T07:48:54.608Z,1013.32
2018-08-12T07:49:54.528Z,1013.28
2018-08-12T07:50:54.508Z,1013.31
2018-08-12T07:51:54.546Z,1013.27
2018-08-12T07:52:54.578Z,1013.27
2018-08-12T07:53:54.620Z,1013.23
2018-08-12T07:54:54.639Z,1013.23
2018-08-12T07:55:54.975Z,1013.26
2018-08-12T07:56:54.707Z,1013.25
2018-08-12T07:57:54.793Z,1013.25
2018-08-12T07:58:54.764Z,1013.24
2018-08-12T07:59:54.854Z,1013.26
2018-08-12T08:00:54.882Z,1013.24
2018-08-12T08:01:55.213Z,1013.22
2018-08-12T08:02:54.899Z,1013.19
2018-08-12T08:03:54.933Z,1013.23
2018-08-12T08:04:54.962Z,1013.21
2018-08-12T08:05:55.052Z,1013.17
2018-08-12T08:06:55.078Z,1013.18
2018-08-12T08:07:55.113Z,1013.20
2018-08-12T08:08:55.445Z,1013.18
2018-08-12T08:09:55.173Z,1013.18
2018-08-12T08:10:55.203Z,1013.21
2018-08-12T08:11:55.197Z,1013.17
2018-08-12T08:12:55.271Z,1013.17
2018-08-12T08:13:55.320Z,1013.18
2018-08-12T08:14:55.291Z,1013.19
2018-08-12T08:15:55.621Z,1013.16
2018-08-12T08:16:55.406Z,1013.17
2018-08-12T08:17:55.455Z,1013.18
2018-08-12T08:18:55.470Z,1013.15
2018-08-12T08:19:55.555Z,1013.17
2018-08-12T08:20:55.480Z,1013.17
2018-08-12T08:21:55.571Z,1013.17
2018-08-12T08:22:55.853Z,1013.16
2018-08-12T08:23:55.579Z,1013.08
2018-08-12T08:24:55.610Z,1013.14
2018-08-12T08:25:55.788Z,1013.13
2018-08-12T08:26:55.725Z,1013.12
2018-08-12T08:27:55.722Z,1013.16
2018-08-12T08:28:55.749Z,1013.14
2018-08-12T08:29:56.080Z,1013.15
2018-08-12T08:30:55.811Z,1013.14
2018-08-12T08:31:56.098Z,1013.12
2018-08-12T08:32:55.878Z,1013.13
2018-08-12T08:33:55.975Z,1013.11
2018-08-12T08:34:55.938Z,1013.11
2018-08-12T08:35:55.983Z,1013.15
2018-08-12T08:36:56.303Z,1013.15
2018-08-12T08:37:56.127Z,1013.11
2018-08-12T08:38:56.064Z,1013.11
2018-08-12T08:39:56.152Z,1013.07
2018-08-12T08:40:56.165Z,1013.06
2018-08-12T08:41:56.219Z,1013.04
2018-08-12T08:42:56.254Z,1013.03
2018-08-12T08:43:56.592Z,1013.01
2018-08-12T08:44:56.268Z,1013.01
2018-08-12T08:45:56.346Z,1013.01
2018-08-12T08:46:56.339Z,1012.93
2018-08-12T08:47:56.420Z,1012.95
2018-08-12T08:48:56.398Z,1012.97
2018-08-12T08:49:56.513Z,1012.94
2018-08-12T08:50:56.765Z,1012.95
2018-08-12T08:51:56.493Z,1012.94
2018-08-12T08:52:56.596Z,1012.91
2018-08-12T08:53:56.609Z,1012.91
2018-08-12T08:54:56.595Z,1012.88
2018-08-12T08:55:56.748Z,1012.86
2018-08-12T08:56:56.658Z,1012.87
2018-08-12T08:57:56.991Z,1012.83
2018-08-12T08:58:56.777Z,1012.82
2018-08-12T08:59:56.806Z,1012.84
2018-08-12T09:01:56.877Z,1012.84
2018-08-12T09:02:56.850Z,1012.86
2018-08-12T09:03:56.897Z,1012.87
2018-08-12T09:04:57.277Z,1012.84
2018-08-12T09:05:57.015Z,1012.83
2018-08-12T09:06:56.988Z,1012.79
2018-08-12T09:07:57.127Z,1012.73
2018-08-12T09:08:57.197Z,1012.80
2018-08-12T09:09:57.133Z,1012.79
2018-08-12T09:10:57.173Z,1012.81
2018-08-12T09:11:57.502Z,1012.75
2018-08-12T09:12:57.240Z,1012.77
2018-08-12T09:13:57.270Z,1012.75
2018-08-12T09:14:57.305Z,1012.72
2018-08-12T09:15:57.278Z,1012.70
2018-08-12T09:16:57.363Z,1012.67
2018-08-12T09:17:57.354Z,1012.65
2018-08-12T09:18:57.683Z,1012.69
2018-08-12T09:19:57.416Z,1012.63
2018-08-12T09:20:57.493Z,1012.65
2018-08-12T09:21:57.533Z,1012.64
2018-08-12T09:22:57.519Z,1012.62
2018-08-12T09:23:57.614Z,1012.63
2018-08-12T09:24:57.576Z,1012.60
2018-08-12T09:25:57.967Z,1012.61
2018-08-12T09:26:57.692Z,1012.58
2018-08-12T09:27:57.685Z,1012.58
2018-08-12T09:28:57.769Z,1012.57
2018-08-12T09:30:57.778Z,1012.56
2018-08-12T09:31:58.162Z,1012.53
2018-08-12T09:32:57.895Z,1012.56
2018-08-12T09:33:57.937Z,1012.53
2018-08-12T09:34:57.905Z,1012.49
2018-08-12T09:35:57.997Z,1012.52
2018-08-12T09:36:57.974Z,1012.55
2018-08-12T09:37:58.351Z,1012.52
2018-08-12T09:38:58.061Z,1012.52
2018-08-12T09:39:58.074Z,1012.55
2018-08-12T09:40:58.109Z,1012.47
2018-08-12T09:41:58.193Z,1012.46
2018-08-12T09:42:58.184Z,1012.50
2018-08-12T09:43:58.512Z,1012.49
2018-08-12T09:44:58.247Z,1012.49
2018-08-12T09:45:58.345Z,1012.50
2018-08-12T09:46:58.352Z,1012.47
2018-08-12T09:47:58.336Z,1012.45
2018-08-12T09:48:58.377Z,1012.47
2018-08-12T09:49:58.410Z,1012.46
2018-08-12T09:50:58.434Z,1012.47
2018-08-12T09:51:58.598Z,1012.47
2018-08-12T09:52:58.509Z,1012.42
2018-08-12T09:53:58.590Z,1012.40
2018-08-12T09:55:58.662Z,1012.34
2018-08-12T09:56:59.003Z,1012.34
2018-08-12T09:57:58.722Z,1012.36
2018-08-12T09:59:58.748Z,1012.31
2018-08-12T10:00:58.825Z,1012.30
2018-08-12T10:01:58.805Z,1012.28
2018-08-12T10:02:58.839Z,1012.29
2018-08-12T10:03:58.876Z,1012.25
2018-08-12T10:04:58.903Z,1012.25
2018-08-12T10:05:58.990Z,1012.23
2018-08-12T10:06:59.018Z,1012.20
2018-08-12T10:07:59.198Z,1012.23
2018-08-12T10:08:59.038Z,1012.13
2018-08-12T10:09:59.374Z,1012.15
2018-08-12T10:10:59.160Z,1012.14
2018-08-12T10:11:59.186Z,1012.14
2018-08-12T10:12:59.166Z,1012.12
2018-08-12T10:13:59.254Z,1012.12
2018-08-12T10:14:59.295Z,1012.12
2018-08-12T10:15:59.322Z,1012.11
2018-08-12T10:16:59.618Z,1012.09
2018-08-12T10:17:59.391Z,1012.05
2018-08-12T10:18:59.396Z,1012.07
2018-08-12T10:19:59.408Z,1012.03
2018-08-12T10:20:59.787Z,1012.04
2018-08-12T10:21:59.525Z,1012.00
2018-08-12T10:22:59.803Z,1012.06
2018-08-12T10:23:59.591Z,1012.00
2018-08-12T10:24:59.636Z,1011.96
2018-08-12T10:25:59.649Z,1011.93
2018-08-12T10:26:59.640Z,1011.92
2018-08-12T10:27:59.731Z,1011.93
2018-08-12T10:29:00.012Z,1011.89
2018-08-12T10:29:59.782Z,1011.90
2018-08-12T10:31:00.091Z,1011.89
2018-08-12T10:31:59.853Z,1011.91
2018-08-12T10:32:59.893Z,1011.85
2018-08-12T10:33:59.925Z,1011.86
2018-08-12T10:35:00.237Z,1011.83
2018-08-12T10:35:59.986Z,1011.78
2018-08-12T10:36:59.971Z,1011.73
2018-08-12T10:38:00.005Z,1011.81
2018-08-12T10:39:00.088Z,1011.73
2018-08-12T10:40:00.075Z,1011.75
2018-08-12T10:41:00.102Z,1011.69
2018-08-12T10:42:00.435Z,1011.71
2018-08-12T10:43:00.221Z,1011.74
2018-08-12T10:44:00.203Z,1011.70
2018-08-12T10:45:00.240Z,1011.68
2018-08-12T10:46:00.319Z,1011.67
2018-08-12T10:47:00.329Z,1011.68
2018-08-12T10:48:00.387Z,1011.62
2018-08-12T10:49:00.374Z,1011.69
2018-08-12T10:50:00.453Z,1011.64
2018-08-12T10:51:00.452Z,1011.63
2018-08-12T10:52:00.474Z,1011.61
2018-08-12T10:53:00.565Z,1011.62
2018-08-12T10:54:00.586Z,1011.59
2018-08-12T10:55:00.871Z,1011.59
2018-08-12T10:56:00.656Z,1011.57
2018-08-12T10:57:00.688Z,1011.57
2018-08-12T10:58:00.726Z,1011.57
2018-08-12T10:59:00.760Z,1011.56
2018-08-12T11:00:00.826Z,1011.55
2018-08-12T11:01:00.772Z,1011.51
2018-08-12T11:02:01.107Z,1011.49
2018-08-12T11:03:00.888Z,1011.48
2018-08-12T11:04:00.882Z,1011.50
2018-08-12T11:05:00.907Z,1011.53
2018-08-12T11:06:00.993Z,1011.51
2018-08-12T11:07:01.037Z,1011.49
2018-08-12T11:08:01.013Z,1011.52
2018-08-12T11:09:01.335Z,1011.50
2018-08-12T11:10:01.133Z,1011.53
2018-08-12T11:11:01.162Z,1011.47
2018-08-12T11:12:01.208Z,1011.45
2018-08-12T11:13:01.226Z,1011.45
2018-08-12T11:14:01.272Z,1011.45
2018-08-12T11:15:01.289Z,1011.48
2018-08-12T11:16:01.581Z,1011.41
2018-08-12T11:17:01.304Z,1011.39
2018-08-12T11:18:01.336Z,1011.36
2018-08-12T11:19:01.374Z,1011.39
2018-08-12T11:20:01.409Z,1011.35
2018-08-12T11:21:01.498Z,1011.31
2018-08-12T11:22:01.470Z,1011.30
2018-08-12T11:23:01.816Z,1011.29
2018-08-12T11:24:01.590Z,1011.21
2018-08-12T11:26:01.659Z,1011.25
2018-08-12T11:27:01.906Z,1011.26
2018-08-12T11:28:01.671Z,1011.22
2018-08-12T11:29:01.716Z,1011.24
2018-08-12T11:30:02.045Z,1011.23
2018-08-12T11:31:01.844Z,1011.23
2018-08-12T11:32:01.804Z,1011.22
2018-08-12T11:33:01.894Z,1011.18
2018-08-12T11:34:01.925Z,1011.13
2018-08-12T11:35:01.942Z,1011.07
2018-08-12T11:36:01.991Z,1011.08
2018-08-12T11:37:02.279Z,1011.09
2018-08-12T11:38:02.012Z,1011.10
2018-08-12T11:39:02.044Z,1011.08
2018-08-12T11:40:02.124Z,1011.04
2018-08-12T11:41:02.127Z,1010.99
2018-08-12T11:42:02.192Z,1010.97
2018-08-12T11:43:02.180Z,1010.95
2018-08-12T11:44:02.213Z,1010.96
2018-08-12T11:45:02.292Z,1010.92
2018-08-12T11:46:02.285Z,1010.96
2018-08-12T11:47:02.317Z,1010.95
2018-08-12T11:48:02.348Z,1010.92
2018-08-12T11:49:02.684Z,1010.92
2018-08-12T11:50:02.469Z,1010.92
2018-08-12T11:51:02.504Z,1010.95
2018-08-12T11:52:02.540Z,1010.89
2018-08-12T11:53:02.517Z,1010.93
2018-08-12T11:54:02.601Z,1010.89
2018-08-12T11:55:02.884Z,1010.90
2018-08-12T11:56:02.667Z,1010.83
2018-08-12T11:57:02.786Z,1010.83
2018-08-12T11:58:02.732Z,1010.84
2018-08-12T11:59:02.723Z,1010.79
2018-08-12T12:00:02.815Z,1010.81
2018-08-12T12:01:02.788Z,1010.78
2018-08-12T12:02:03.200Z,1010.73
2018-08-12T12:03:02.921Z,1010.70
2018-08-12T12:04:02.938Z,1010.71
2018-08-12T12:05:02.933Z,1010.68
2018-08-12T12:06:03.006Z,1010.57
2018-08-12T12:07:02.992Z,1010.58
2018-08-12T12:08:03.079Z,1010.53
2018-08-12T12:09:03.351Z,1010.51
2018-08-12T12:10:03.091Z,1010.60
2018-08-12T12:11:03.120Z,1010.59
2018-08-12T12:12:03.213Z,1010.56
2018-08-12T12:13:03.244Z,1010.48
2018-08-12T12:14:03.220Z,1010.50
2018-08-12T12:15:03.301Z,1010.53
2018-08-12T12:16:03.595Z,1010.49
2018-08-12T12:17:03.383Z,1010.51
2018-08-12T12:18:03.413Z,1010.48
2018-08-12T12:19:03.393Z,1010.46
2018-08-12T12:20:03.430Z,1010.47
2018-08-12T12:21:03.510Z,1010.46
2018-08-12T12:22:03.542Z,1010.43
2018-08-12T12:23:03.880Z,1010.39
2018-08-12T12:24:03.558Z,1010.40
2018-08-12T12:25:03.600Z,1010.41
2018-08-12T12:26:03.773Z,1010.39
2018-08-12T12:27:03.659Z,1010.37
2018-08-12T12:28:03.745Z,1010.33
2018-08-12T12:29:03.727Z,1010.34
2018-08-12T12:30:03.767Z,1010.32
2018-08-12T12:31:03.845Z,1010.25
2018-08-12T12:32:03.841Z,1010.27
2018-08-12T12:34:03.955Z,1010.26
2018-08-12T12:35:03.987Z,1010.24
2018-08-12T12:37:04.307Z,1010.20